° 22
SULAYMANIYAH INTERNATIONAL AIRPORT
  • SulyAir
  • SulyAir
1 1
Arrival

ArrivalsMore >>

Departure

DeparturesMore >>

TAF

TAF ORSU 231730Z 2318/2418 30008KT CAVOK
TEMPO 2405/2411  19006KT 9999 FEW045 SCT080
BECMG 2411/2413 30012KT CAVOK=

METARs